createdAt,value
2019-05-22T00:01:37.077Z,99.90
2019-05-22T00:04:16.485Z,99.90
2019-05-22T00:06:47.686Z,99.90
2019-05-22T00:09:40.705Z,99.90
2019-05-22T00:12:17.494Z,99.90
2019-05-22T00:14:52.741Z,99.90
2019-05-22T00:17:32.189Z,99.90
2019-05-22T00:20:07.048Z,99.90
2019-05-22T00:22:40.913Z,99.90
2019-05-22T00:25:14.249Z,99.90
2019-05-22T00:27:44.663Z,99.90
2019-05-22T00:30:16.612Z,99.90
2019-05-22T00:32:48.237Z,99.90
2019-05-22T00:35:21.326Z,99.90
2019-05-22T00:37:53.756Z,99.90
2019-05-22T00:40:25.319Z,99.90
2019-05-22T00:43:04.265Z,99.90
2019-05-22T00:45:31.139Z,99.90
2019-05-22T00:48:02.892Z,99.90
2019-05-22T00:50:40.390Z,99.90
2019-05-22T00:53:28.368Z,99.90
2019-05-22T00:56:01.997Z,99.90
2019-05-22T00:58:40.073Z,99.90
2019-05-22T01:01:18.211Z,99.90
2019-05-22T01:03:50.431Z,99.90
2019-05-22T01:06:24.847Z,99.90
2019-05-22T01:08:56.404Z,99.90
2019-05-22T01:11:29.584Z,99.90
2019-05-22T01:14:01.444Z,99.90
2019-05-22T01:16:35.588Z,99.90
2019-05-22T01:19:10.706Z,99.90
2019-05-22T01:21:41.052Z,99.90
2019-05-22T01:24:12.516Z,99.90
2019-05-22T01:26:43.573Z,99.90
2019-05-22T01:29:13.795Z,99.90
2019-05-22T01:31:49.038Z,99.90
2019-05-22T01:34:25.633Z,99.90
2019-05-22T01:37:02.366Z,99.90
2019-05-22T01:39:53.218Z,99.90
2019-05-22T01:42:33.109Z,99.90
2019-05-22T01:45:06.743Z,99.90
2019-05-22T01:48:05.547Z,99.90
2019-05-22T01:50:47.573Z,99.90
2019-05-22T01:53:21.552Z,99.90
2019-05-22T01:55:58.003Z,99.90
2019-05-22T01:58:29.684Z,99.90
2019-05-22T02:01:02.559Z,99.90
2019-05-22T02:03:34.774Z,99.90
2019-05-22T02:06:07.098Z,99.90
2019-05-22T02:08:41.490Z,99.90
2019-05-22T02:11:14.613Z,99.90
2019-05-22T02:13:50.425Z,99.90
2019-05-22T02:16:20.602Z,99.90
2019-05-22T02:18:52.493Z,99.90
2019-05-22T02:21:23.745Z,99.90
2019-05-22T02:23:54.376Z,99.90
2019-05-22T02:26:24.270Z,99.90
2019-05-22T02:28:54.730Z,99.90
2019-05-22T02:31:28.624Z,99.90
2019-05-22T02:34:05.405Z,99.90
2019-05-22T02:36:38.297Z,99.90
2019-05-22T02:39:15.644Z,99.90
2019-05-22T02:41:50.479Z,99.90
2019-05-22T02:44:21.566Z,99.90
2019-05-22T02:46:54.518Z,99.90
2019-05-22T02:49:26.338Z,99.90
2019-05-22T02:51:57.534Z,99.90
2019-05-22T02:54:31.604Z,99.90
2019-05-22T02:57:02.308Z,99.90
2019-05-22T02:59:32.306Z,99.90
2019-05-22T03:02:04.103Z,99.90
2019-05-22T03:04:57.509Z,99.90
2019-05-22T03:07:28.777Z,99.90
2019-05-22T03:10:01.210Z,99.90
2019-05-22T03:12:35.025Z,99.90
2019-05-22T03:15:08.799Z,99.90
2019-05-22T03:17:41.033Z,99.90
2019-05-22T03:20:13.819Z,99.90
2019-05-22T03:23:04.466Z,99.90
2019-05-22T03:25:34.364Z,99.90
2019-05-22T03:28:06.883Z,99.90
2019-05-22T03:30:42.713Z,99.90
2019-05-22T03:33:13.428Z,99.90
2019-05-22T03:35:47.010Z,99.90
2019-05-22T03:38:19.004Z,99.90
2019-05-22T03:40:51.437Z,99.90
2019-05-22T03:43:24.549Z,99.90
2019-05-22T03:45:57.281Z,99.90
2019-05-22T03:48:32.316Z,99.90
2019-05-22T03:51:12.594Z,99.90
2019-05-22T03:53:43.856Z,99.90
2019-05-22T03:56:15.132Z,99.90
2019-05-22T03:58:45.253Z,99.90
2019-05-22T04:01:15.592Z,99.90
2019-05-22T04:03:46.600Z,99.90
2019-05-22T04:06:19.486Z,99.90
2019-05-22T04:08:52.656Z,99.90
2019-05-22T04:11:24.605Z,99.90
2019-05-22T04:13:54.589Z,99.90
2019-05-22T04:16:26.784Z,99.90
2019-05-22T04:18:58.003Z,99.90
2019-05-22T04:21:30.303Z,99.90
2019-05-22T04:24:00.849Z,99.90
2019-05-22T04:26:31.097Z,99.90
2019-05-22T04:29:02.176Z,99.90
2019-05-22T04:31:56.103Z,99.90
2019-05-22T04:34:26.957Z,99.90
2019-05-22T04:36:58.030Z,99.90
2019-05-22T04:39:29.662Z,99.90
2019-05-22T04:42:01.654Z,99.90
2019-05-22T04:44:31.779Z,99.90
2019-05-22T04:47:02.211Z,99.90
2019-05-22T04:49:32.909Z,99.90
2019-05-22T04:52:04.119Z,99.90
2019-05-22T04:54:34.117Z,99.90
2019-05-22T04:57:04.494Z,99.90
2019-05-22T04:59:34.791Z,99.90
2019-05-22T05:02:07.317Z,99.90
2019-05-22T05:04:37.541Z,99.90
2019-05-22T05:07:08.257Z,99.90
2019-05-22T05:09:38.536Z,99.90
2019-05-22T05:12:09.493Z,99.90
2019-05-22T05:14:39.461Z,99.90
2019-05-22T05:17:10.025Z,99.90
2019-05-22T05:19:41.089Z,99.90
2019-05-22T05:22:14.892Z,99.90
2019-05-22T05:24:45.109Z,99.90
2019-05-22T05:27:15.671Z,99.90
2019-05-22T05:29:45.500Z,99.90
2019-05-22T05:32:15.599Z,99.90
2019-05-22T05:34:59.464Z,99.90
2019-05-22T05:37:29.905Z,99.90
2019-05-22T05:40:41.273Z,99.90
2019-05-22T05:43:16.573Z,99.90
2019-05-22T05:45:49.248Z,99.90
2019-05-22T05:48:23.543Z,99.90
2019-05-22T05:51:23.950Z,99.90
2019-05-22T05:54:01.232Z,99.90
2019-05-22T05:56:32.241Z,99.90
2019-05-22T05:59:04.209Z,99.90
2019-05-22T06:01:38.256Z,99.90
2019-05-22T06:04:08.998Z,99.90
2019-05-22T06:07:09.501Z,99.90
2019-05-22T06:09:39.918Z,99.90
2019-05-22T06:12:11.991Z,99.90
2019-05-22T06:14:42.930Z,99.90
2019-05-22T06:18:02.255Z,99.90
2019-05-22T06:20:32.513Z,99.90
2019-05-22T06:23:48.489Z,99.90
2019-05-22T06:26:38.857Z,99.90
2019-05-22T06:29:10.497Z,99.90
2019-05-22T06:31:51.208Z,99.90
2019-05-22T06:34:21.898Z,99.90
2019-05-22T06:36:51.859Z,99.90
2019-05-22T06:39:22.427Z,99.90
2019-05-22T06:41:52.749Z,99.90
2019-05-22T06:44:32.720Z,99.90
2019-05-22T06:47:02.909Z,99.90
2019-05-22T06:49:44.181Z,99.90
2019-05-22T06:52:15.599Z,99.90
2019-05-22T06:54:45.582Z,99.90
2019-05-22T06:57:18.326Z,99.90
2019-05-22T06:59:49.004Z,99.90
2019-05-22T07:02:21.221Z,99.90
2019-05-22T07:04:52.075Z,99.90
2019-05-22T07:07:24.227Z,99.90
2019-05-22T07:09:54.693Z,99.90
2019-05-22T07:12:27.634Z,99.90
2019-05-22T07:15:27.375Z,99.90
2019-05-22T07:17:57.719Z,99.90
2019-05-22T07:20:32.714Z,99.90
2019-05-22T07:23:06.103Z,99.90
2019-05-22T07:25:40.363Z,99.90
2019-05-22T07:28:11.420Z,99.90
2019-05-22T07:30:44.222Z,99.90
2019-05-22T07:33:18.042Z,99.90
2019-05-22T07:36:08.364Z,99.90
2019-05-22T07:38:24.198Z,99.90
2019-05-22T07:40:55.613Z,99.90
2019-05-22T07:43:25.888Z,99.90
2019-05-22T07:46:00.844Z,99.90
2019-05-22T07:48:33.718Z,99.90
2019-05-22T07:51:04.864Z,99.90
2019-05-22T07:53:37.617Z,99.90
2019-05-22T07:56:11.539Z,99.90
2019-05-22T07:58:43.335Z,99.90
2019-05-22T08:01:15.952Z,99.90
2019-05-22T08:03:51.652Z,99.90
2019-05-22T08:06:22.756Z,99.90
2019-05-22T08:08:55.987Z,99.90
2019-05-22T08:11:29.813Z,99.90
2019-05-22T08:14:01.182Z,99.90
2019-05-22T08:16:33.421Z,99.90
2019-05-22T08:19:04.045Z,99.90
2019-05-22T08:21:34.554Z,99.90
2019-05-22T08:24:05.721Z,99.90
2019-05-22T08:26:53.299Z,99.90
2019-05-22T08:29:10.458Z,99.90
2019-05-22T08:31:41.445Z,99.90
2019-05-22T08:34:11.496Z,99.90
2019-05-22T08:36:41.937Z,99.90
2019-05-22T08:39:13.867Z,99.90
2019-05-22T08:41:48.900Z,99.90
2019-05-22T08:44:20.147Z,99.90
2019-05-22T08:46:51.294Z,99.90
2019-05-22T08:49:21.689Z,99.90
2019-05-22T08:51:51.876Z,99.90
2019-05-22T08:54:22.362Z,99.90
2019-05-22T08:56:53.873Z,99.90
2019-05-22T08:59:24.545Z,99.90
2019-05-22T09:01:55.380Z,99.90
2019-05-22T09:04:25.549Z,99.90
2019-05-22T09:06:56.189Z,99.90
2019-05-22T09:09:26.220Z,99.90
2019-05-22T09:11:57.843Z,99.90
2019-05-22T09:14:28.360Z,99.90
2019-05-22T09:16:58.462Z,99.90
2019-05-22T09:19:28.399Z,99.90
2019-05-22T09:21:58.890Z,99.90
2019-05-22T09:24:33.456Z,99.90
2019-05-22T09:27:04.781Z,99.90
2019-05-22T09:29:36.615Z,99.90
2019-05-22T09:32:10.723Z,99.90
2019-05-22T09:34:41.672Z,99.90
2019-05-22T09:37:11.688Z,99.90
2019-05-22T09:39:42.116Z,99.90
2019-05-22T09:42:12.044Z,99.90
2019-05-22T09:44:42.721Z,99.90
2019-05-22T09:47:14.587Z,99.90
2019-05-22T09:49:45.887Z,99.90
2019-05-22T09:52:16.544Z,99.90
2019-05-22T09:54:49.582Z,99.90
2019-05-22T09:57:20.116Z,99.90
2019-05-22T09:59:49.978Z,99.90
2019-05-22T10:02:19.994Z,99.90
2019-05-22T10:04:50.223Z,99.90
2019-05-22T10:07:20.610Z,99.90
2019-05-22T10:09:51.009Z,99.90
2019-05-22T10:12:21.865Z,99.90
2019-05-22T10:14:52.533Z,99.90
2019-05-22T10:17:28.040Z,99.90
2019-05-22T10:20:25.091Z,99.90
2019-05-22T10:23:22.210Z,99.90
2019-05-22T10:26:26.347Z,99.90
2019-05-22T10:29:00.482Z,99.90
2019-05-22T10:31:32.020Z,99.90
2019-05-22T10:34:02.193Z,99.90
2019-05-22T10:36:33.117Z,99.90
2019-05-22T10:39:03.708Z,99.90
2019-05-22T10:41:34.457Z,99.90
2019-05-22T10:44:06.909Z,99.90
2019-05-22T10:46:37.935Z,99.90
2019-05-22T10:49:09.722Z,99.90
2019-05-22T10:51:40.037Z,99.90
2019-05-22T10:54:10.623Z,99.90
2019-05-22T10:56:40.593Z,99.90
2019-05-22T10:59:10.496Z,99.90
2019-05-22T11:01:40.456Z,99.90
2019-05-22T11:04:11.534Z,99.90
2019-05-22T11:06:42.474Z,99.90
2019-05-22T11:09:13.425Z,99.90
2019-05-22T11:11:43.455Z,99.90
2019-05-22T11:14:13.458Z,99.90
2019-05-22T11:16:43.948Z,99.90
2019-05-22T11:19:14.273Z,99.90
2019-05-22T11:21:46.853Z,99.90
2019-05-22T11:24:18.130Z,99.90
2019-05-22T11:26:49.541Z,99.90
2019-05-22T11:29:20.109Z,99.90
2019-05-22T11:31:53.402Z,99.90
2019-05-22T11:34:23.388Z,99.90
2019-05-22T11:36:54.520Z,99.90
2019-05-22T11:39:38.516Z,99.90
2019-05-22T11:41:58.570Z,99.90
2019-05-22T11:44:29.240Z,99.90
2019-05-22T11:47:02.336Z,99.30
2019-05-22T11:49:33.037Z,97.30
2019-05-22T11:52:03.441Z,96.60
2019-05-22T11:54:34.356Z,97.00
2019-05-22T11:57:04.443Z,98.00
2019-05-22T11:59:35.454Z,98.70
2019-05-22T12:02:07.066Z,99.10
2019-05-22T12:04:47.209Z,99.30
2019-05-22T12:07:09.590Z,99.50
2019-05-22T12:09:40.092Z,99.90
2019-05-22T12:12:11.555Z,99.60
2019-05-22T12:14:41.935Z,99.90
2019-05-22T12:17:12.541Z,99.90
2019-05-22T12:19:42.837Z,99.90
2019-05-22T12:22:13.194Z,99.90
2019-05-22T12:24:43.315Z,98.30
2019-05-22T12:27:13.412Z,97.40
2019-05-22T12:29:43.533Z,96.90
2019-05-22T12:32:14.847Z,96.70
2019-05-22T12:34:45.316Z,97.20
2019-05-22T12:37:19.592Z,97.60
2019-05-22T12:39:49.745Z,96.70
2019-05-22T12:42:22.053Z,97.10
2019-05-22T12:44:56.884Z,96.90
2019-05-22T12:47:31.275Z,97.70
2019-05-22T12:50:07.796Z,98.10
2019-05-22T12:52:43.053Z,98.50
2019-05-22T12:55:16.974Z,97.20
2019-05-22T12:58:11.274Z,96.40
2019-05-22T13:00:23.841Z,95.50
2019-05-22T13:06:12.999Z,93.40
2019-05-22T13:08:46.631Z,93.10
2019-05-22T13:11:17.235Z,94.10
2019-05-22T13:14:04.859Z,92.20
2019-05-22T13:16:47.333Z,91.10
2019-05-22T13:19:14.214Z,89.80
2019-05-22T13:21:46.186Z,86.40
2019-05-22T13:24:19.519Z,85.00
2019-05-22T13:26:56.079Z,83.20
2019-05-22T13:29:36.011Z,85.30
2019-05-22T13:32:11.680Z,83.60
2019-05-22T13:34:44.365Z,82.20
2019-05-22T13:37:28.080Z,82.80
2019-05-22T13:40:06.215Z,83.40
2019-05-22T13:42:59.284Z,84.00
2019-05-22T13:46:18.873Z,82.20
2019-05-22T13:48:10.306Z,84.90
2019-05-22T13:50:44.291Z,85.80
2019-05-22T13:53:30.920Z,85.80
2019-05-22T13:55:58.769Z,86.90
2019-05-22T13:59:40.288Z,87.30
2019-05-22T14:02:10.795Z,84.60
2019-05-22T14:04:44.401Z,88.00
2019-05-22T14:07:40.479Z,85.70
2019-05-22T14:10:12.800Z,88.20
2019-05-22T14:18:34.241Z,87.20
2019-05-22T14:21:04.376Z,84.90
2019-05-22T14:23:36.251Z,87.00
2019-05-22T14:26:12.040Z,86.30
2019-05-22T14:28:43.098Z,87.00
2019-05-22T14:31:15.936Z,85.70
2019-05-22T14:33:46.052Z,84.60
2019-05-22T14:36:46.638Z,84.20
2019-05-22T14:39:24.687Z,84.90
2019-05-22T14:41:54.991Z,84.10
2019-05-22T14:44:43.412Z,85.50
2019-05-22T14:47:32.658Z,87.30
2019-05-22T14:50:03.623Z,88.20
2019-05-22T14:52:39.816Z,86.80
2019-05-22T14:55:12.645Z,84.90
2019-05-22T14:58:20.248Z,83.70
2019-05-22T15:00:42.186Z,82.80
2019-05-22T15:03:13.180Z,85.50
2019-05-22T15:05:43.682Z,83.80
2019-05-22T15:08:14.415Z,84.90
2019-05-22T15:10:55.750Z,86.40
2019-05-22T15:13:49.190Z,87.90
2019-05-22T15:16:16.623Z,86.60
2019-05-22T15:19:09.481Z,87.20
2019-05-22T15:23:02.201Z,86.70
2019-05-22T15:25:49.240Z,85.90
2019-05-22T15:28:20.059Z,90.00
2019-05-22T15:31:43.387Z,87.90
2019-05-22T15:34:08.413Z,86.50
2019-05-22T15:36:39.538Z,88.40
2019-05-22T15:39:38.770Z,87.60
2019-05-22T15:42:10.943Z,84.70
2019-05-22T15:44:57.231Z,87.50
2019-05-22T15:47:28.896Z,86.20
2019-05-22T15:50:01.059Z,86.10
2019-05-22T15:52:43.303Z,85.50
2019-05-22T15:55:48.995Z,84.80
2019-05-22T15:59:05.369Z,85.90
2019-05-22T16:01:55.115Z,85.10
2019-05-22T16:04:30.137Z,87.10
2019-05-22T16:07:07.633Z,87.90
2019-05-22T16:09:54.423Z,86.20
2019-05-22T16:12:46.374Z,85.20
2019-05-22T16:15:31.480Z,85.90
2019-05-22T16:18:11.568Z,86.00
2019-05-22T16:20:47.935Z,84.80
2019-05-22T16:23:42.281Z,85.60
2019-05-22T16:26:19.420Z,84.20
2019-05-22T16:28:52.553Z,86.10
2019-05-22T16:31:27.165Z,84.10
2019-05-22T16:34:01.107Z,83.90
2019-05-22T16:36:33.262Z,84.80
2019-05-22T16:39:06.831Z,83.30
2019-05-22T16:41:37.254Z,83.40
2019-05-22T16:44:07.772Z,84.10
2019-05-22T16:46:42.717Z,84.60
2019-05-22T16:49:16.230Z,83.30
2019-05-22T16:51:47.354Z,84.10
2019-05-22T16:54:36.270Z,84.40
2019-05-22T16:57:05.952Z,85.60
2019-05-22T17:00:42.057Z,86.50
2019-05-22T17:02:36.238Z,85.60
2019-05-22T17:06:02.402Z,85.40
2019-05-22T17:08:31.878Z,85.60
2019-05-22T17:11:06.058Z,90.10
2019-05-22T17:13:48.585Z,89.20
2019-05-22T17:16:27.307Z,89.10
2019-05-22T17:19:25.596Z,89.50
2019-05-22T17:21:47.018Z,90.60
2019-05-22T17:24:24.066Z,90.30
2019-05-22T17:27:00.429Z,91.30
2019-05-22T17:29:34.226Z,90.40
2019-05-22T17:32:06.377Z,90.80
2019-05-22T17:34:38.509Z,90.90
2019-05-22T17:37:18.643Z,92.30
2019-05-22T17:40:17.499Z,91.40
2019-05-22T17:42:53.318Z,91.50
2019-05-22T17:45:26.912Z,92.30
2019-05-22T17:47:58.398Z,92.30
2019-05-22T17:50:31.561Z,92.10
2019-05-22T17:53:02.298Z,92.00
2019-05-22T17:55:56.887Z,92.50
2019-05-22T17:58:43.425Z,92.00
2019-05-22T18:01:18.010Z,92.30
2019-05-22T18:04:17.667Z,93.80
2019-05-22T18:06:51.109Z,92.80
2019-05-22T18:09:21.872Z,93.40
2019-05-22T18:11:56.633Z,93.30
2019-05-22T18:14:38.234Z,93.20
2019-05-22T18:21:03.863Z,93.10
2019-05-22T18:23:35.167Z,93.80
2019-05-22T18:26:11.852Z,94.00
2019-05-22T18:28:43.374Z,93.50
2019-05-22T18:31:15.986Z,94.20
2019-05-22T18:33:56.147Z,93.90
2019-05-22T18:36:27.888Z,94.50
2019-05-22T18:38:58.329Z,94.50
2019-05-22T18:41:28.436Z,94.50
2019-05-22T18:44:06.092Z,94.70
2019-05-22T18:46:39.074Z,95.20
2019-05-22T18:49:23.235Z,96.20
2019-05-22T18:52:18.880Z,97.00
2019-05-22T18:55:02.491Z,97.00
2019-05-22T18:57:42.574Z,98.10
2019-05-22T19:00:21.506Z,98.10
2019-05-22T19:03:17.623Z,99.20
2019-05-22T19:08:40.520Z,99.70
2019-05-22T19:11:22.971Z,99.90
2019-05-22T19:13:59.775Z,99.90
2019-05-22T19:16:49.424Z,99.90
2019-05-22T19:20:17.884Z,99.90
2019-05-22T19:23:13.885Z,99.90
2019-05-22T19:25:46.311Z,99.90
2019-05-22T19:28:47.399Z,99.90
2019-05-22T19:34:36.482Z,99.90
2019-05-22T19:37:27.417Z,99.90
2019-05-22T19:39:55.918Z,99.90
2019-05-22T19:42:34.179Z,99.90
2019-05-22T19:45:11.390Z,99.90
2019-05-22T19:47:50.465Z,99.90
2019-05-22T19:54:09.224Z,99.90
2019-05-22T19:56:45.939Z,99.90
2019-05-22T19:59:28.824Z,99.90
2019-05-22T20:02:05.729Z,99.90
2019-05-22T20:04:48.912Z,99.90
2019-05-22T20:10:30.534Z,99.90
2019-05-22T20:13:13.782Z,99.90
2019-05-22T20:16:27.300Z,99.90
2019-05-22T20:18:58.043Z,99.90
2019-05-22T20:21:43.374Z,99.90
2019-05-22T20:24:16.189Z,99.90
2019-05-22T20:26:52.671Z,99.90
2019-05-22T20:29:35.570Z,99.90
2019-05-22T20:32:11.950Z,99.90
2019-05-22T20:34:53.493Z,99.90
2019-05-22T20:37:30.057Z,99.90
2019-05-22T20:40:13.063Z,99.90
2019-05-22T20:42:46.581Z,99.90
2019-05-22T20:45:24.800Z,99.90
2019-05-22T20:48:37.695Z,99.90
2019-05-22T20:51:27.037Z,99.90
2019-05-22T20:54:00.259Z,99.90
2019-05-22T20:56:38.267Z,99.90
2019-05-22T20:59:14.105Z,99.90
2019-05-22T21:01:50.210Z,99.90
2019-05-22T21:04:30.169Z,99.90
2019-05-22T21:07:07.425Z,99.90
2019-05-22T21:09:38.354Z,99.90
2019-05-22T21:12:13.432Z,99.90
2019-05-22T21:14:48.561Z,99.90
2019-05-22T21:17:21.294Z,99.90
2019-05-22T21:19:57.397Z,99.90
2019-05-22T21:22:32.561Z,99.90
2019-05-22T21:25:06.674Z,99.90
2019-05-22T21:27:39.476Z,99.90
2019-05-22T21:30:11.196Z,99.90
2019-05-22T21:32:45.955Z,99.90
2019-05-22T21:35:19.213Z,99.90
2019-05-22T21:38:16.403Z,99.90
2019-05-22T21:40:37.794Z,99.90
2019-05-22T21:43:13.330Z,99.90
2019-05-22T21:45:49.393Z,99.90
2019-05-22T21:48:20.908Z,99.90
2019-05-22T21:50:51.406Z,99.90
2019-05-22T21:53:21.914Z,99.90
2019-05-22T21:56:04.053Z,99.90
2019-05-22T21:58:25.424Z,99.90
2019-05-22T22:01:27.481Z,99.90
2019-05-22T22:04:05.389Z,99.90
2019-05-22T22:06:37.674Z,99.90
2019-05-22T22:09:08.811Z,99.90
2019-05-22T22:11:55.835Z,99.90
2019-05-22T22:14:26.871Z,99.90
2019-05-22T22:16:59.234Z,99.90
2019-05-22T22:19:31.448Z,99.90
2019-05-22T22:22:05.416Z,99.90
2019-05-22T22:24:35.846Z,99.90
2019-05-22T22:27:06.359Z,99.90
2019-05-22T22:29:36.512Z,99.90
2019-05-22T22:32:10.590Z,99.90
2019-05-22T22:35:15.215Z,99.90
2019-05-22T22:37:46.472Z,99.90
2019-05-22T22:40:31.818Z,99.90
2019-05-22T22:43:03.680Z,99.90
2019-05-22T22:45:46.557Z,99.90
2019-05-22T22:48:26.034Z,99.90
2019-05-22T22:50:57.938Z,99.90
2019-05-22T22:53:28.530Z,99.90
2019-05-22T22:55:59.024Z,99.90
2019-05-22T22:58:29.736Z,99.90
2019-05-22T23:01:02.238Z,99.90
2019-05-22T23:03:33.335Z,99.90
2019-05-22T23:06:03.718Z,99.90
2019-05-22T23:08:34.729Z,99.90
2019-05-22T23:11:07.089Z,99.90
2019-05-22T23:13:38.312Z,99.90
2019-05-22T23:16:09.292Z,99.90
2019-05-22T23:19:31.169Z,99.90
2019-05-22T23:22:01.168Z,99.90
2019-05-22T23:24:34.968Z,99.90
2019-05-22T23:27:06.670Z,99.90
2019-05-22T23:29:38.578Z,99.90
2019-05-22T23:32:11.143Z,99.90
2019-05-22T23:34:43.245Z,99.90
2019-05-22T23:37:14.963Z,99.90
2019-05-22T23:39:47.538Z,99.90
2019-05-22T23:42:21.096Z,99.90
2019-05-22T23:44:54.891Z,99.90
2019-05-22T23:47:25.231Z,99.90
2019-05-22T23:49:56.171Z,99.90
2019-05-22T23:52:26.544Z,99.90
2019-05-22T23:54:57.136Z,99.90
2019-05-22T23:57:28.497Z,99.90
